Station Historical Data
Daily Summary for March 27, 2012 Units:  Both    English   Metric
« Previous Day
Next Day »
Daily Weekly Monthly Yearly Custom
  High: Low: Average:
Temperature: 80.0 °F /  26.7 °C 52.0 °F /  11.1 °C 66.4 °F /  19.1 °C
Dew Point: 57.0 °F /  13.9 °C 46.3 °F /  7.9 °C 51.2 °F /  10.7 °C
Humidity: 81% 40% 60%
Wind Speed: 11.0mph /  17.7km/h - 4.2mph /  6.8km/h
Wind Gust: 14.0mph /  22.5km/h - -
Wind- - ESE
Pressure: 30.14 in /  1020.5 hPa 30.03 in /  1016.8 hPa -
Precipitation: 0.00 in /  0 mm    
Historical Graphs
 
 
Tabular Data for March 27, 2012
Time Temperature Dew Point Pressure Wind Wind Speed Wind Gust Humidity Rainfall Rate (Hourly) Conditions
00:00 62.3 °F /  16.8 °C 50.0 °F /  10 °C 30.07in /  1018.2hPa NE 3.0mph /  4.8km/h 6.0mph /  9.7km/h 64% 0.00in /  0mm
00:05 62.2 °F /  16.8 °C 49.9 °F /  9.9 °C 30.07in /  1018.2hPa NE 2.0mph /  3.2km/h 4.0mph /  6.4km/h 64% 0.00in /  0mm
00:11 62.0 °F /  16.7 °C 50.1 °F /  10.1 °C 30.07in /  1018.2hPa NE 2.0mph /  3.2km/h 7.0mph /  11.3km/h 65% 0.00in /  0mm
00:16 61.8 °F /  16.6 °C 49.9 °F /  9.9 °C 30.07in /  1018.2hPa NNE 3.0mph /  4.8km/h 6.0mph /  9.7km/h 65% 0.00in /  0mm
00:21 61.8 °F /  16.6 °C 49.9 °F /  9.9 °C 30.07in /  1018.2hPa NE 3.0mph /  4.8km/h 8.0mph /  12.9km/h 65% 0.00in /  0mm
00:26 61.9 °F /  16.6 °C 49.6 °F /  9.8 °C 30.06in /  1017.8hPa NE 4.0mph /  6.4km/h 7.0mph /  11.3km/h 64% 0.00in /  0mm
00:31 62.0 °F /  16.7 °C 49.7 °F /  9.8 °C 30.07in /  1018.2hPa ENE 5.0mph /  8km/h 7.0mph /  11.3km/h 64% 0.00in /  0mm
00:36 62.0 °F /  16.7 °C 49.7 °F /  9.8 °C 30.06in /  1017.8hPa NE 10.0mph /  16.1km/h 10.0mph /  16.1km/h 64% 0.00in /  0mm
00:41 61.9 °F /  16.6 °C 49.6 °F /  9.8 °C 30.06in /  1017.8hPa North 5.0mph /  8km/h 7.0mph /  11.3km/h 64% 0.00in /  0mm
00:46 61.7 °F /  16.5 °C 49.4 °F /  9.7 °C 30.06in /  1017.8hPa NE 4.0mph /  6.4km/h 6.0mph /  9.7km/h 64% 0.00in /  0mm
00:51 61.7 °F /  16.5 °C 49.0 °F /  9.4 °C 30.06in /  1017.8hPa NNE 8.0mph /  12.9km/h 10.0mph /  16.1km/h 63% 0.00in /  0mm
00:56 61.8 °F /  16.6 °C 49.1 °F /  9.5 °C 30.06in /  1017.8hPa NE 6.0mph /  9.7km/h 8.0mph /  12.9km/h 63% 0.00in /  0mm
01:01 61.8 °F /  16.6 °C 48.7 °F /  9.3 °C 30.06in /  1017.8hPa NNE 6.0mph /  9.7km/h 10.0mph /  16.1km/h 62% 0.00in /  0mm
01:06 61.7 °F /  16.5 °C 49.0 °F /  9.4 °C 30.06in /  1017.8hPa NNE 3.0mph /  4.8km/h 8.0mph /  12.9km/h 63% 0.00in /  0mm
01:11 61.6 °F /  16.4 °C 48.9 °F /  9.4 °C 30.06in /  1017.8hPa NNE 6.0mph /  9.7km/h 9.0mph /  14.5km/h 63% 0.00in /  0mm
01:16 61.4 °F /  16.3 °C 48.7 °F /  9.3 °C 30.06in /  1017.8hPa NE 6.0mph /  9.7km/h 9.0mph /  14.5km/h 63% 0.00in /  0mm
01:21 61.3 °F /  16.3 °C 48.6 °F /  9.2 °C 30.06in /  1017.8hPa NE 5.0mph /  8km/h 10.0mph /  16.1km/h 63% 0.00in /  0mm
01:26 61.2 °F /  16.2 °C 48.5 °F /  9.2 °C 30.06in /  1017.8hPa NE 4.0mph /  6.4km/h 9.0mph /  14.5km/h 63% 0.00in /  0mm
01:31 60.9 °F /  16.1 °C 48.2 °F /  9 °C 30.06in /  1017.8hPa North 3.0mph /  4.8km/h 9.0mph /  14.5km/h 63% 0.00in /  0mm
01:36 60.8 °F /  16 °C 48.6 °F /  9.2 °C 30.06in /  1017.8hPa NNE 3.0mph /  4.8km/h 7.0mph /  11.3km/h 64% 0.00in /  0mm
01:41 60.9 °F /  16.1 °C 48.2 °F /  9 °C 30.06in /  1017.8hPa NE 5.0mph /  8km/h 10.0mph /  16.1km/h 63% 0.00in /  0mm
01:46 60.6 °F /  15.9 °C 48.4 °F /  9.1 °C 30.06in /  1017.8hPa NNE 4.0mph /  6.4km/h 7.0mph /  11.3km/h 64% 0.00in /  0mm
01:51 60.4 °F /  15.8 °C 48.2 °F /  9 °C 30.06in /  1017.8hPa NE 5.0mph /  8km/h 7.0mph /  11.3km/h 64% 0.00in /  0mm
01:57 60.3 °F /  15.7 °C 48.1 °F /  8.9 °C 30.06in /  1017.8hPa NE 5.0mph /  8km/h 6.0mph /  9.7km/h 64% 0.00in /  0mm
02:01 60.1 °F /  15.6 °C 48.3 °F /  9.1 °C 30.06in /  1017.8hPa NE 5.0mph /  8km/h 6.0mph /  9.7km/h 65% 0.00in /  0mm
02:07 60.2 °F /  15.7 °C 48.0 °F /  8.9 °C 30.06in /  1017.8hPa NNE 4.0mph /  6.4km/h 9.0mph /  14.5km/h 64% 0.00in /  0mm
02:12 60.0 °F /  15.6 °C 48.2 °F /  9 °C 30.06in /  1017.8hPa ENE 4.0mph /  6.4km/h 6.0mph /  9.7km/h 65% 0.00in /  0mm
02:17 60.0 °F /  15.6 °C 48.2 °F /  9 °C 30.06in /  1017.8hPa NE 4.0mph /  6.4km/h 7.0mph /  11.3km/h 65% 0.00in /  0mm
02:22 59.9 °F /  15.5 °C 48.1 °F /  8.9 °C 30.06in /  1017.8hPa NE 6.0mph /  9.7km/h 7.0mph /  11.3km/h 65% 0.00in /  0mm
02:27 59.8 °F /  15.4 °C 48.0 °F /  8.9 °C 30.07in /  1018.2hPa NE 6.0mph /  9.7km/h 7.0mph /  11.3km/h 65% 0.00in /  0mm
02:32 59.7 °F /  15.4 °C 47.9 °F /  8.8 °C 30.06in /  1017.8hPa NE 3.0mph /  4.8km/h 7.0mph /  11.3km/h 65% 0.00in /  0mm
02:37 59.4 °F /  15.2 °C 48.0 °F /  8.9 °C 30.07in /  1018.2hPa NE 7.0mph /  11.3km/h 7.0mph /  11.3km/h 66% 0.00in /  0mm
02:42 59.3 °F /  15.2 °C 48.0 °F /  8.9 °C 30.07in /  1018.2hPa NE 4.0mph /  6.4km/h 5.0mph /  8km/h 66% 0.00in /  0mm
02:47 59.1 °F /  15.1 °C 47.8 °F /  8.8 °C 30.07in /  1018.2hPa NE 4.0mph /  6.4km/h 6.0mph /  9.7km/h 66% 0.00in /  0mm
02:52 58.9 °F /  14.9 °C 47.6 °F /  8.7 °C 30.07in /  1018.2hPa NNE 2.0mph /  3.2km/h 4.0mph /  6.4km/h 66% 0.00in /  0mm
02:57 58.6 °F /  14.8 °C 47.7 °F /  8.7 °C 30.07in /  1018.2hPa NE 3.0mph /  4.8km/h 5.0mph /  8km/h 67% 0.00in /  0mm
03:02 58.4 °F /  14.7 °C 47.9 °F /  8.8 °C 30.07in /  1018.2hPa NE 2.0mph /  3.2km/h 6.0mph /  9.7km/h 68% 0.00in /  0mm
03:07 58.4 °F /  14.7 °C 47.9 °F /  8.8 °C 30.07in /  1018.2hPa NNE 3.0mph /  4.8km/h 6.0mph /  9.7km/h 68% 0.00in /  0mm
03:12 58.3 °F /  14.6 °C 47.8 °F /  8.8 °C 30.07in /  1018.2hPa NE 3.0mph /  4.8km/h 4.0mph /  6.4km/h 68% 0.00in /  0mm
03:17 58.0 °F /  14.4 °C 47.5 °F /  8.6 °C 30.07in /  1018.2hPa NNE 4.0mph /  6.4km/h 4.0mph /  6.4km/h 68% 0.00in /  0mm
03:22 57.7 °F /  14.3 °C 47.6 °F /  8.7 °C 30.07in /  1018.2hPa NNE 2.0mph /  3.2km/h 3.0mph /  4.8km/h 69% 0.00in /  0mm
03:27 57.3 °F /  14.1 °C 47.6 °F /  8.7 °C 30.07in /  1018.2hPa NNE 3.0mph /  4.8km/h 5.0mph /  8km/h 70% 0.00in /  0mm
03:32 57.2 °F /  14 °C 47.5 °F /  8.6 °C 30.07in /  1018.2hPa NE 2.0mph /  3.2km/h 4.0mph /  6.4km/h 70% 0.00in /  0mm
03:37 57.0 °F /  13.9 °C 47.3 °F /  8.5 °C 30.07in /  1018.2hPa NE 2.0mph /  3.2km/h 4.0mph /  6.4km/h 70% 0.00in /  0mm
03:42 56.8 °F /  13.8 °C 47.5 °F /  8.6 °C 30.07in /  1018.2hPa NNE 5.0mph /  8km/h 5.0mph /  8km/h 71% 0.00in /  0mm
03:47 56.7 °F /  13.7 °C 47.4 °F /  8.6 °C 30.07in /  1018.2hPa NNE 3.0mph /  4.8km/h 4.0mph /  6.4km/h 71% 0.00in /  0mm
03:52 56.5 °F /  13.6 °C 47.2 °F /  8.4 °C 30.07in /  1018.2hPa NE 2.0mph /  3.2km/h 6.0mph /  9.7km/h 71% 0.00in /  0mm
03:57 56.5 °F /  13.6 °C 47.2 °F /  8.4 °C 30.06in /  1017.8hPa NE 3.0mph /  4.8km/h 6.0mph /  9.7km/h 71% 0.00in /  0mm
04:02 56.5 °F /  13.6 °C 47.2 °F /  8.4 °C 30.06in /  1017.8hPa NE 4.0mph /  6.4km/h 5.0mph /  8km/h 71% 0.00in /  0mm
04:07 56.5 °F /  13.6 °C 47.2 °F /  8.4 °C 30.06in /  1017.8hPa NNE 4.0mph /  6.4km/h 6.0mph /  9.7km/h 71% 0.00in /  0mm
04:12 56.4 °F /  13.6 °C 47.1 °F /  8.4 °C 30.06in /  1017.8hPa NNE 2.0mph /  3.2km/h 4.0mph /  6.4km/h 71% 0.00in /  0mm
04:17 56.2 °F /  13.4 °C 47.3 °F /  8.5 °C 30.06in /  1017.8hPa NE 3.0mph /  4.8km/h 5.0mph /  8km/h 72% 0.00in /  0mm
04:22 56.1 °F /  13.4 °C 47.2 °F /  8.4 °C 30.06in /  1017.8hPa NE 2.0mph /  3.2km/h 5.0mph /  8km/h 72% 0.00in /  0mm
04:27 56.0 °F /  13.3 °C 47.1 °F /  8.4 °C 30.06in /  1017.8hPa NE 2.0mph /  3.2km/h 6.0mph /  9.7km/h 72% 0.00in /  0mm
04:33 55.8 °F /  13.2 °C 47.3 °F /  8.5 °C 30.06in /  1017.8hPa NNE 2.0mph /  3.2km/h 4.0mph /  6.4km/h 73% 0.00in /  0mm
04:38 55.8 °F /  13.2 °C 47.3 °F /  8.5 °C 30.05in /  1017.5hPa NE 4.0mph /  6.4km/h 6.0mph /  9.7km/h 73% 0.00in /  0mm
04:43 55.9 °F /  13.3 °C 47.4 °F /  8.6 °C 30.06in /  1017.8hPa ENE 2.0mph /  3.2km/h 6.0mph /  9.7km/h 73% 0.00in /  0mm
04:48 55.8 °F /  13.2 °C 47.3 °F /  8.5 °C 30.06in /  1017.8hPa NE 2.0mph /  3.2km/h 5.0mph /  8km/h 73% 0.00in /  0mm
04:53 55.6 °F /  13.1 °C 47.1 °F /  8.4 °C 30.06in /  1017.8hPa NE 2.0mph /  3.2km/h 4.0mph /  6.4km/h 73% 0.00in /  0mm
04:58 55.5 °F /  13.1 °C 47.0 °F /  8.3 °C 30.06in /  1017.8hPa NE 4.0mph /  6.4km/h 6.0mph /  9.7km/h 73% 0.00in /  0mm
05:03 55.4 °F /  13 °C 47.3 °F /  8.5 °C 30.06in /  1017.8hPa NE 3.0mph /  4.8km/h 4.0mph /  6.4km/h 74% 0.00in /  0mm
05:08 55.2 °F /  12.9 °C 47.1 °F /  8.4 °C 30.06in /  1017.8hPa NE 2.0mph /  3.2km/h 3.0mph /  4.8km/h 74% 0.00in /  0mm
05:13 55.0 °F /  12.8 °C 46.9 °F /  8.3 °C 30.06in /  1017.8hPa NE 4.0mph /  6.4km/h 4.0mph /  6.4km/h 74% 0.00in /  0mm
05:18 55.0 °F /  12.8 °C 47.2 °F /  8.4 °C 30.06in /  1017.8hPa NE 2.0mph /  3.2km/h 4.0mph /  6.4km/h 75% 0.00in /  0mm
05:23 54.9 °F /  12.7 °C 47.1 °F /  8.4 °C 30.06in /  1017.8hPa NE 3.0mph /  4.8km/h 4.0mph /  6.4km/h 75% 0.00in /  0mm
05:28 54.9 °F /  12.7 °C 47.1 °F /  8.4 °C 30.06in /  1017.8hPa NNE 3.0mph /  4.8km/h 5.0mph /  8km/h 75% 0.00in /  0mm
05:33 54.8 °F /  12.7 °C 47.0 °F /  8.3 °C 30.07in /  1018.2hPa NNE 2.0mph /  3.2km/h 5.0mph /  8km/h 75% 0.00in /  0mm
05:38 54.9 °F /  12.7 °C 47.1 °F /  8.4 °C 30.07in /  1018.2hPa NE 3.0mph /  4.8km/h 5.0mph /  8km/h 75% 0.00in /  0mm
05:43 54.7 °F /  12.6 °C 46.9 °F /  8.3 °C 30.07in /  1018.2hPa NE 3.0mph /  4.8km/h 5.0mph /  8km/h 75% 0.00in /  0mm
05:49 54.7 °F /  12.6 °C 47.3 °F /  8.5 °C 30.06in /  1017.8hPa NE 4.0mph /  6.4km/h 7.0mph /  11.3km/h 76% 0.00in /  0mm
05:54 54.6 °F /  12.6 °C 47.2 °F /  8.4 °C 30.06in /  1017.8hPa NE 4.0mph /  6.4km/h 7.0mph /  11.3km/h 76% 0.00in /  0mm
05:59 54.5 °F /  12.5 °C 47.1 °F /  8.4 °C 30.07in /  1018.2hPa NE 3.0mph /  4.8km/h 6.0mph /  9.7km/h 76% 0.00in /  0mm
06:04 54.4 °F /  12.4 °C 47.0 °F /  8.3 °C 30.07in /  1018.2hPa NE 2.0mph /  3.2km/h 7.0mph /  11.3km/h 76% 0.00in /  0mm
06:09 54.2 °F /  12.3 °C 47.2 °F /  8.4 °C 30.07in /  1018.2hPa NE 5.0mph /  8km/h 6.0mph /  9.7km/h 77% 0.00in /  0mm
06:14 54.1 °F /  12.3 °C 47.1 °F /  8.4 °C 30.08in /  1018.5hPa NE 4.0mph /  6.4km/h 8.0mph /  12.9km/h 77% 0.00in /  0mm
06:19 54.0 °F /  12.2 °C 47.0 °F /  8.3 °C 30.08in /  1018.5hPa NE 4.0mph /  6.4km/h 5.0mph /  8km/h 77% 0.00in /  0mm
06:24 53.8 °F /  12.1 °C 47.1 °F /  8.4 °C 30.08in /  1018.5hPa NNE 4.0mph /  6.4km/h 7.0mph /  11.3km/h 78% 0.00in /  0mm
06:29 53.9 °F /  12.2 °C 47.2 °F /  8.4 °C 30.08in /  1018.5hPa East 2.0mph /  3.2km/h 6.0mph /  9.7km/h 78% 0.00in /  0mm
06:34 53.9 °F /  12.2 °C 47.2 °F /  8.4 °C 30.08in /  1018.5hPa ENE 5.0mph /  8km/h 7.0mph /  11.3km/h 78% 0.00in /  0mm
06:39 54.0 °F /  12.2 °C 47.0 °F /  8.3 °C 30.08in /  1018.5hPa NE 4.0mph /  6.4km/h 6.0mph /  9.7km/h 77% 0.00in /  0mm
06:44 53.9 °F /  12.2 °C 46.9 °F /  8.3 °C 30.09in /  1018.8hPa NE 3.0mph /  4.8km/h 8.0mph /  12.9km/h 77% 0.00in /  0mm
06:49 53.7 °F /  12.1 °C 47.0 °F /  8.3 °C 30.09in /  1018.8hPa NE 4.0mph /  6.4km/h 4.0mph /  6.4km/h 78% 0.00in /  0mm
06:54 53.6 °F /  12 °C 46.9 °F /  8.3 °C 30.09in /  1018.8hPa NE 4.0mph /  6.4km/h 4.0mph /  6.4km/h 78% 0.00in /  0mm
06:59 53.5 °F /  11.9 °C 46.8 °F /  8.2 °C 30.09in /  1018.8hPa ENE 2.0mph /  3.2km/h 2.0mph /  3.2km/h 78% 0.00in /  0mm
07:04 53.3 °F /  11.8 °C 46.6 °F /  8.1 °C 30.10in /  1019.2hPa NE 2.0mph /  3.2km/h 3.0mph /  4.8km/h 78% 0.00in /  0mm
07:09 53.2 °F /  11.8 °C 46.9 °F /  8.3 °C 30.10in /  1019.2hPa NNE 1.0mph /  1.6km/h 2.0mph /  3.2km/h 79% 0.00in /  0mm
07:14 52.9 °F /  11.6 °C 46.6 °F /  8.1 °C 30.10in /  1019.2hPa NNE 1.0mph /  1.6km/h 2.0mph /  3.2km/h 79% 0.00in /  0mm
07:19 52.7 °F /  11.5 °C 46.4 °F /  8 °C 30.10in /  1019.2hPa NNE 1.0mph /  1.6km/h 2.0mph /  3.2km/h 79% 0.00in /  0mm
07:24 52.5 °F /  11.4 °C 46.5 °F /  8.1 °C 30.11in /  1019.5hPa NE 2.0mph /  3.2km/h 2.0mph /  3.2km/h 80% 0.00in /  0mm
07:29 52.3 °F /  11.3 °C 46.3 °F /  7.9 °C 30.11in /  1019.5hPa NNE 2.0mph /  3.2km/h 2.0mph /  3.2km/h 80% 0.00in /  0mm
07:34 52.3 °F /  11.3 °C 46.3 °F /  7.9 °C 30.11in /  1019.5hPa NE 3.0mph /  4.8km/h 3.0mph /  4.8km/h 80% 0.00in /  0mm
07:39 52.2 °F /  11.2 °C 46.5 °F /  8.1 °C 30.11in /  1019.5hPa NE 2.0mph /  3.2km/h 3.0mph /  4.8km/h 81% 0.00in /  0mm
07:44 52.2 °F /  11.2 °C 46.5 °F /  8.1 °C 30.11in /  1019.5hPa NE 2.0mph /  3.2km/h 3.0mph /  4.8km/h 81% 0.00in /  0mm
07:49 52.1 °F /  11.2 °C 46.5 °F /  8.1 °C 30.11in /  1019.5hPa NE 3.0mph /  4.8km/h 3.0mph /  4.8km/h 81% 0.00in /  0mm
07:54 52.0 °F /  11.1 °C 46.4 °F /  8 °C 30.11in /  1019.5hPa NNE 2.0mph /  3.2km/h 3.0mph /  4.8km/h 81% 0.00in /  0mm
07:59 52.1 °F /  11.2 °C 46.5 °F /  8.1 °C 30.12in /  1019.9hPa NE 2.0mph /  3.2km/h 3.0mph /  4.8km/h 81% 0.00in /  0mm
08:04 52.1 °F /  11.2 °C 46.5 °F /  8.1 °C 30.12in /  1019.9hPa NE 2.0mph /  3.2km/h 2.0mph /  3.2km/h 81% 0.00in /  0mm
08:09 52.4 °F /  11.3 °C 46.8 °F /  8.2 °C 30.12in /  1019.9hPa NE 3.0mph /  4.8km/h 3.0mph /  4.8km/h 81% 0.00in /  0mm
08:14 52.9 °F /  11.6 °C 46.9 °F /  8.3 °C 30.12in /  1019.9hPa NE 2.0mph /  3.2km/h 3.0mph /  4.8km/h 80% 0.00in /  0mm
08:19 53.4 °F /  11.9 °C 47.1 °F /  8.4 °C 30.12in /  1019.9hPa East 2.0mph /  3.2km/h 3.0mph /  4.8km/h 79% 0.00in /  0mm
08:25 53.6 °F /  12 °C 47.3 °F /  8.5 °C 30.12in /  1019.9hPa ENE 1.0mph /  1.6km/h 4.0mph /  6.4km/h 79% 0.00in /  0mm
08:30 53.7 °F /  12.1 °C 47.0 °F /  8.3 °C 30.13in /  1020.2hPa ENE 2.0mph /  3.2km/h 3.0mph /  4.8km/h 78% 0.00in /  0mm
08:35 53.9 °F /  12.2 °C 47.2 °F /  8.4 °C 30.13in /  1020.2hPa NE 3.0mph /  4.8km/h 4.0mph /  6.4km/h 78% 0.00in /  0mm
08:40 53.9 °F /  12.2 °C 47.2 °F /  8.4 °C 30.13in /  1020.2hPa NNE 3.0mph /  4.8km/h 5.0mph /  8km/h 78% 0.00in /  0mm
08:45 54.1 °F /  12.3 °C 47.4 °F /  8.6 °C 30.13in /  1020.2hPa NE 5.0mph /  8km/h 5.0mph /  8km/h 78% 0.00in /  0mm
08:50 54.3 °F /  12.4 °C 47.6 °F /  8.7 °C 30.13in /  1020.2hPa NE 4.0mph /  6.4km/h 4.0mph /  6.4km/h 78% 0.00in /  0mm
08:55 54.6 °F /  12.6 °C 47.9 °F /  8.8 °C 30.13in /  1020.2hPa NE 3.0mph /  4.8km/h 5.0mph /  8km/h 78% 0.00in /  0mm
09:00 54.9 °F /  12.7 °C 47.8 °F /  8.8 °C 30.14in /  1020.5hPa ENE 3.0mph /  4.8km/h 6.0mph /  9.7km/h 77% 0.00in /  0mm
09:05 55.2 °F /  12.9 °C 47.8 °F /  8.8 °C 30.14in /  1020.5hPa NE 2.0mph /  3.2km/h 6.0mph /  9.7km/h 76% 0.00in /  0mm
09:10 55.7 °F /  13.2 °C 48.3 °F /  9.1 °C 30.14in /  1020.5hPa East 4.0mph /  6.4km/h 5.0mph /  8km/h 76% 0.00in /  0mm
09:15 56.3 °F /  13.5 °C 48.5 °F /  9.2 °C 30.14in /  1020.5hPa ESE 2.0mph /  3.2km/h 6.0mph /  9.7km/h 75% 0.00in /  0mm
09:20 56.8 °F /  13.8 °C 48.6 °F /  9.2 °C 30.14in /  1020.5hPa NE 3.0mph /  4.8km/h 6.0mph /  9.7km/h 74% 0.00in /  0mm
09:25 57.4 °F /  14.1 °C 49.2 °F /  9.6 °C 30.14in /  1020.5hPa East 4.0mph /  6.4km/h 5.0mph /  8km/h 74% 0.00in /  0mm
09:30 58.0 °F /  14.4 °C 49.8 °F /  9.9 °C 30.14in /  1020.5hPa ENE 4.0mph /  6.4km/h 6.0mph /  9.7km/h 74% 0.00in /  0mm
09:35 58.4 °F /  14.7 °C 50.2 °F /  10.1 °C 30.14in /  1020.5hPa East 7.0mph /  11.3km/h 7.0mph /  11.3km/h 74% 0.00in /  0mm
09:40 58.8 °F /  14.9 °C 49.4 °F /  9.7 °C 30.14in /  1020.5hPa East 6.0mph /  9.7km/h 9.0mph /  14.5km/h 71% 0.00in /  0mm
09:42 58.9 °F /  14.9 °C 49.2 °F /  9.6 °C 30.13in /  1020.2hPa East 5.0mph /  8km/h 9.0mph /  14.5km/h 70% 0.00in /  0mm
09:47 59.2 °F /  15.1 °C 48.7 °F /  9.3 °C 30.13in /  1020.2hPa East 4.0mph /  6.4km/h 6.0mph /  9.7km/h 68% 0.00in /  0mm
09:52 59.7 °F /  15.4 °C 50.3 °F /  10.2 °C 30.13in /  1020.2hPa East 4.0mph /  6.4km/h 9.0mph /  14.5km/h 71% 0.00in /  0mm
09:57 60.3 °F /  15.7 °C 50.1 °F /  10.1 °C 30.13in /  1020.2hPa ESE 3.0mph /  4.8km/h 7.0mph /  11.3km/h 69% 0.00in /  0mm
10:02 60.9 °F /  16.1 °C 49.9 °F /  9.9 °C 30.13in /  1020.2hPa East 4.0mph /  6.4km/h 7.0mph /  11.3km/h 67% 0.00in /  0mm
10:07 61.3 °F /  16.3 °C 51.1 °F /  10.6 °C 30.13in /  1020.2hPa ESE 2.0mph /  3.2km/h 5.0mph /  8km/h 69% 0.00in /  0mm
10:12 62.0 °F /  16.7 °C 50.5 °F /  10.3 °C 30.13in /  1020.2hPa East 3.0mph /  4.8km/h 5.0mph /  8km/h 66% 0.00in /  0mm
10:17 62.5 °F /  16.9 °C 50.2 °F /  10.1 °C 30.13in /  1020.2hPa East 4.0mph /  6.4km/h 5.0mph /  8km/h 64% 0.00in /  0mm
10:22 62.9 °F /  17.2 °C 51.4 °F /  10.8 °C 30.13in /  1020.2hPa ESE 4.0mph /  6.4km/h 5.0mph /  8km/h 66% 0.00in /  0mm
10:27 63.3 °F /  17.4 °C 50.9 °F /  10.5 °C 30.14in /  1020.5hPa ESE 3.0mph /  4.8km/h 6.0mph /  9.7km/h 64% 0.00in /  0mm
10:32 63.6 °F /  17.6 °C 50.8 °F /  10.4 °C 30.14in /  1020.5hPa ESE 4.0mph /  6.4km/h 5.0mph /  8km/h 63% 0.00in /  0mm
10:37 63.8 °F /  17.7 °C 50.5 °F /  10.3 °C 30.14in /  1020.5hPa ESE 2.0mph /  3.2km/h 4.0mph /  6.4km/h 62% 0.00in /  0mm
10:42 64.3 °F /  17.9 °C 51.0 °F /  10.6 °C 30.14in /  1020.5hPa SE 3.0mph /  4.8km/h 3.0mph /  4.8km/h 62% 0.00in /  0mm
10:43 64.4 °F /  18 °C 51.1 °F /  10.6 °C 30.14in /  1020.5hPa ESE 2.0mph /  3.2km/h 3.0mph /  4.8km/h 62% 0.00in /  0mm
10:48 65.2 °F /  18.4 °C 51.9 °F /  11.1 °C 30.14in /  1020.5hPa ESE 3.0mph /  4.8km/h 4.0mph /  6.4km/h 62% 0.00in /  0mm
10:53 65.5 °F /  18.6 °C 51.7 °F /  10.9 °C 30.14in /  1020.5hPa ESE 2.0mph /  3.2km/h 5.0mph /  8km/h 61% 0.00in /  0mm
10:59 66.1 °F /  18.9 °C 51.8 °F /  11 °C 30.14in /  1020.5hPa East 6.0mph /  9.7km/h 7.0mph /  11.3km/h 60% 0.00in /  0mm
11:04 66.5 °F /  19.2 °C 51.3 °F /  10.7 °C 30.14in /  1020.5hPa SE 8.0mph /  12.9km/h 10.0mph /  16.1km/h 58% 0.00in /  0mm
11:09 66.9 °F /  19.4 °C 52.6 °F /  11.4 °C 30.14in /  1020.5hPa ESE 6.0mph /  9.7km/h 10.0mph /  16.1km/h 60% 0.00in /  0mm
11:14 67.3 °F /  19.6 °C 53.4 °F /  11.9 °C 30.14in /  1020.5hPa ESE 9.0mph /  14.5km/h 9.0mph /  14.5km/h 61% 0.00in /  0mm
11:19 67.6 °F /  19.8 °C 51.8 °F /  11 °C 30.14in /  1020.5hPa SSE 6.0mph /  9.7km/h 8.0mph /  12.9km/h 57% 0.00in /  0mm
11:24 68.2 °F /  20.1 °C 52.9 °F /  11.6 °C 30.14in /  1020.5hPa SSW 5.0mph /  8km/h 7.0mph /  11.3km/h 58% 0.00in /  0mm
11:29 68.8 °F /  20.4 °C 53.9 °F /  12.2 °C 30.14in /  1020.5hPa SE 10.0mph /  16.1km/h 10.0mph /  16.1km/h 59% 0.00in /  0mm
11:34 68.8 °F /  20.4 °C 51.5 °F /  10.8 °C 30.14in /  1020.5hPa ESE 11.0mph /  17.7km/h 11.0mph /  17.7km/h 54% 0.00in /  0mm
11:39 68.9 °F /  20.5 °C 52.1 °F /  11.2 °C 30.14in /  1020.5hPa SSE 9.0mph /  14.5km/h 13.0mph /  20.9km/h 55% 0.00in /  0mm
11:44 69.3 °F /  20.7 °C 53.0 °F /  11.7 °C 30.14in /  1020.5hPa ESE 9.0mph /  14.5km/h 12.0mph /  19.3km/h 56% 0.00in /  0mm
11:49 69.7 °F /  20.9 °C 53.8 °F /  12.1 °C 30.14in /  1020.5hPa SSE 7.0mph /  11.3km/h 12.0mph /  19.3km/h 57% 0.00in /  0mm
11:54 70.0 °F /  21.1 °C 54.1 °F /  12.3 °C 30.14in /  1020.5hPa SE 6.0mph /  9.7km/h 8.0mph /  12.9km/h 57% 0.00in /  0mm
11:59 70.0 °F /  21.1 °C 52.6 °F /  11.4 °C 30.14in /  1020.5hPa SSE 5.0mph /  8km/h 11.0mph /  17.7km/h 54% 0.00in /  0mm
12:04 69.9 °F /  21.1 °C 53.0 °F /  11.7 °C 30.14in /  1020.5hPa SSE 6.0mph /  9.7km/h 12.0mph /  19.3km/h 55% 0.00in /  0mm
12:09 70.1 °F /  21.2 °C 52.7 °F /  11.5 °C 30.14in /  1020.5hPa SE 8.0mph /  12.9km/h 13.0mph /  20.9km/h 54% 0.00in /  0mm
12:14 70.0 °F /  21.1 °C 52.1 °F /  11.2 °C 30.14in /  1020.5hPa SE 5.0mph /  8km/h 11.0mph /  17.7km/h 53% 0.00in /  0mm
12:19 70.5 °F /  21.4 °C 53.6 °F /  12 °C 30.13in /  1020.2hPa SSE 6.0mph /  9.7km/h 9.0mph /  14.5km/h 55% 0.00in /  0mm
12:24 70.6 °F /  21.4 °C 54.6 °F /  12.6 °C 30.13in /  1020.2hPa SE 8.0mph /  12.9km/h 9.0mph /  14.5km/h 57% 0.00in /  0mm
12:29 70.8 °F /  21.6 °C 52.3 °F /  11.3 °C 30.13in /  1020.2hPa ESE 7.0mph /  11.3km/h 12.0mph /  19.3km/h 52% 0.00in /  0mm
12:34 71.1 °F /  21.7 °C 53.6 °F /  12 °C 30.13in /  1020.2hPa ESE 10.0mph /  16.1km/h 10.0mph /  16.1km/h 54% 0.00in /  0mm
12:39 71.3 °F /  21.8 °C 55.3 °F /  12.9 °C 30.13in /  1020.2hPa SSE 4.0mph /  6.4km/h 7.0mph /  11.3km/h 57% 0.00in /  0mm
12:44 71.8 °F /  22.1 °C 53.2 °F /  11.8 °C 30.13in /  1020.2hPa South 6.0mph /  9.7km/h 12.0mph /  19.3km/h 52% 0.00in /  0mm
12:49 72.2 °F /  22.3 °C 54.1 °F /  12.3 °C 30.13in /  1020.2hPa SE 5.0mph /  8km/h 9.0mph /  14.5km/h 53% 0.00in /  0mm
12:54 72.9 °F /  22.7 °C 54.8 °F /  12.7 °C 30.13in /  1020.2hPa SE 4.0mph /  6.4km/h 10.0mph /  16.1km/h 53% 0.00in /  0mm
12:59 73.2 °F /  22.9 °C 55.1 °F /  12.8 °C 30.13in /  1020.2hPa SSE 6.0mph /  9.7km/h 10.0mph /  16.1km/h 53% 0.00in /  0mm
13:04 73.1 °F /  22.8 °C 53.4 °F /  11.9 °C 30.13in /  1020.2hPa ESE 7.0mph /  11.3km/h 10.0mph /  16.1km/h 50% 0.00in /  0mm
13:09 73.1 °F /  22.8 °C 53.9 °F /  12.2 °C 30.13in /  1020.2hPa SSE 6.0mph /  9.7km/h 9.0mph /  14.5km/h 51% 0.00in /  0mm
13:14 73.2 °F /  22.9 °C 54.5 °F /  12.5 °C 30.12in /  1019.9hPa SSE 5.0mph /  8km/h 10.0mph /  16.1km/h 52% 0.00in /  0mm
13:20 73.5 °F /  23.1 °C 54.8 °F /  12.7 °C 30.12in /  1019.9hPa ESE 7.0mph /  11.3km/h 7.0mph /  11.3km/h 52% 0.00in /  0mm
13:25 73.9 °F /  23.3 °C 54.7 °F /  12.6 °C 30.12in /  1019.9hPa East 5.0mph /  8km/h 6.0mph /  9.7km/h 51% 0.00in /  0mm
13:30 74.2 °F /  23.4 °C 54.9 °F /  12.7 °C 30.11in /  1019.5hPa SSE 6.0mph /  9.7km/h 8.0mph /  12.9km/h 51% 0.00in /  0mm
13:35 74.7 °F /  23.7 °C 53.7 °F /  12.1 °C 30.11in /  1019.5hPa ESE 10.0mph /  16.1km/h 10.0mph /  16.1km/h 48% 0.00in /  0mm
13:40 74.5 °F /  23.6 °C 55.2 °F /  12.9 °C 30.11in /  1019.5hPa SE 6.0mph /  9.7km/h 7.0mph /  11.3km/h 51% 0.00in /  0mm
13:45 75.1 °F /  23.9 °C 54.1 °F /  12.3 °C 30.11in /  1019.5hPa South 5.0mph /  8km/h 7.0mph /  11.3km/h 48% 0.00in /  0mm
13:50 75.0 °F /  23.9 °C 55.7 °F /  13.2 °C 30.10in /  1019.2hPa SE 5.0mph /  8km/h 10.0mph /  16.1km/h 51% 0.00in /  0mm
13:55 75.3 °F /  24.1 °C 54.8 °F /  12.7 °C 30.10in /  1019.2hPa SE 9.0mph /  14.5km/h 10.0mph /  16.1km/h 49% 0.00in /  0mm
14:00 75.3 °F /  24.1 °C 53.7 °F /  12.1 °C 30.10in /  1019.2hPa SSE 5.0mph /  8km/h 10.0mph /  16.1km/h 47% 0.00in /  0mm
14:05 75.7 °F /  24.3 °C 55.2 °F /  12.9 °C 30.10in /  1019.2hPa SSE 11.0mph /  17.7km/h 11.0mph /  17.7km/h 49% 0.00in /  0mm
14:06 75.6 °F /  24.2 °C 54.0 °F /  12.2 °C 30.10in /  1019.2hPa SE 9.0mph /  14.5km/h 11.0mph /  17.7km/h 47% 0.00in /  0mm
14:11 75.8 °F /  24.3 °C 56.9 °F /  13.8 °C 30.10in /  1019.2hPa SSE 5.0mph /  8km/h 10.0mph /  16.1km/h 52% 0.00in /  0mm
14:16 75.7 °F /  24.3 °C 55.8 °F /  13.2 °C 30.10in /  1019.2hPa SE 8.0mph /  12.9km/h 8.0mph /  12.9km/h 50% 0.00in /  0mm
14:21 76.0 °F /  24.4 °C 54.3 °F /  12.4 °C 30.10in /  1019.2hPa South 3.0mph /  4.8km/h 11.0mph /  17.7km/h 47% 0.00in /  0mm
14:26 76.4 °F /  24.7 °C 57.0 °F /  13.9 °C 30.09in /  1018.8hPa SSE 8.0mph /  12.9km/h 9.0mph /  14.5km/h 51% 0.00in /  0mm
14:31 76.4 °F /  24.7 °C 56.4 °F /  13.6 °C 30.09in /  1018.8hPa ESE 6.0mph /  9.7km/h 11.0mph /  17.7km/h 50% 0.00in /  0mm
14:37 76.4 °F /  24.7 °C 54.7 °F /  12.6 °C 30.09in /  1018.8hPa SE 6.0mph /  9.7km/h 11.0mph /  17.7km/h 47% 0.00in /  0mm
14:42 76.3 °F /  24.6 °C 55.8 °F /  13.2 °C 30.09in /  1018.8hPa SSE 9.0mph /  14.5km/h 14.0mph /  22.5km/h 49% 0.00in /  0mm
14:47 76.3 °F /  24.6 °C 55.8 °F /  13.2 °C 30.09in /  1018.8hPa SE 8.0mph /  12.9km/h 11.0mph /  17.7km/h 49% 0.00in /  0mm
14:52 76.5 °F /  24.7 °C 57.0 °F /  13.9 °C 30.09in /  1018.8hPa SSE 6.0mph /  9.7km/h 9.0mph /  14.5km/h 51% 0.00in /  0mm
14:57 77.2 °F /  25.1 °C 55.4 °F /  13 °C 30.09in /  1018.8hPa South 2.0mph /  3.2km/h 7.0mph /  11.3km/h 47% 0.00in /  0mm
15:02 77.2 °F /  25.1 °C 54.8 °F /  12.7 °C 30.09in /  1018.8hPa SW 4.0mph /  6.4km/h 10.0mph /  16.1km/h 46% 0.00in /  0mm
15:07 77.5 °F /  25.3 °C 54.5 °F /  12.5 °C 30.09in /  1018.8hPa South 5.0mph /  8km/h 9.0mph /  14.5km/h 45% 0.00in /  0mm
15:12 77.4 °F /  25.2 °C 55.6 °F /  13.1 °C 30.09in /  1018.8hPa SW 8.0mph /  12.9km/h 8.0mph /  12.9km/h 47% 0.00in /  0mm
15:17 77.5 °F /  25.3 °C 54.5 °F /  12.5 °C 30.08in /  1018.5hPa SW 7.0mph /  11.3km/h 8.0mph /  12.9km/h 45% 0.00in /  0mm
15:22 77.8 °F /  25.4 °C 53.5 °F /  11.9 °C 30.08in /  1018.5hPa SSW 5.0mph /  8km/h 6.0mph /  9.7km/h 43% 0.00in /  0mm
15:27 78.1 °F /  25.6 °C 53.8 °F /  12.1 °C 30.08in /  1018.5hPa SSE 6.0mph /  9.7km/h 14.0mph /  22.5km/h 43% 0.00in /  0mm
15:32 78.4 °F /  25.8 °C 56.5 °F /  13.6 °C 30.08in /  1018.5hPa SSW 3.0mph /  4.8km/h 8.0mph /  12.9km/h 47% 0.00in /  0mm
15:37 78.4 °F /  25.8 °C 55.3 °F /  12.9 °C 30.07in /  1018.2hPa SSE 4.0mph /  6.4km/h 9.0mph /  14.5km/h 45% 0.00in /  0mm
15:42 78.7 °F /  25.9 °C 54.3 °F /  12.4 °C 30.07in /  1018.2hPa SSE 5.0mph /  8km/h 8.0mph /  12.9km/h 43% 0.00in /  0mm
15:47 78.3 °F /  25.7 °C 55.2 °F /  12.9 °C 30.07in /  1018.2hPa South 6.0mph /  9.7km/h 7.0mph /  11.3km/h 45% 0.00in /  0mm
15:52 78.4 °F /  25.8 °C 54.1 °F /  12.3 °C 30.07in /  1018.2hPa ESE 3.0mph /  4.8km/h 5.0mph /  8km/h 43% 0.00in /  0mm
15:57 78.3 °F /  25.7 °C 52.7 °F /  11.5 °C 30.07in /  1018.2hPa SSE 6.0mph /  9.7km/h 10.0mph /  16.1km/h 41% 0.00in /  0mm
16:02 78.2 °F /  25.7 °C 54.5 °F /  12.5 °C 30.07in /  1018.2hPa SSE 4.0mph /  6.4km/h 9.0mph /  14.5km/h 44% 0.00in /  0mm
16:07 78.5 °F /  25.8 °C 53.5 °F /  11.9 °C 30.07in /  1018.2hPa SSE 8.0mph /  12.9km/h 9.0mph /  14.5km/h 42% 0.00in /  0mm
16:12 78.5 °F /  25.8 °C 54.8 °F /  12.7 °C 30.06in /  1017.8hPa SSE 7.0mph /  11.3km/h 10.0mph /  16.1km/h 44% 0.00in /  0mm
16:18 78.6 °F /  25.9 °C 55.5 °F /  13.1 °C 30.06in /  1017.8hPa ESE 3.0mph /  4.8km/h 6.0mph /  9.7km/h 45% 0.00in /  0mm
16:23 79.0 °F /  26.1 °C 54.6 °F /  12.6 °C 30.06in /  1017.8hPa ESE 3.0mph /  4.8km/h 3.0mph /  4.8km/h 43% 0.00in /  0mm
16:28 79.3 °F /  26.3 °C 54.9 °F /  12.7 °C 30.06in /  1017.8hPa ESE 4.0mph /  6.4km/h 10.0mph /  16.1km/h 43% 0.00in /  0mm
16:33 79.0 °F /  26.1 °C 53.3 °F /  11.8 °C 30.06in /  1017.8hPa SE 5.0mph /  8km/h 7.0mph /  11.3km/h 41% 0.00in /  0mm
16:38 78.9 °F /  26.1 °C 54.5 °F /  12.5 °C 30.06in /  1017.8hPa SW 4.0mph /  6.4km/h 6.0mph /  9.7km/h 43% 0.00in /  0mm
16:43 79.3 °F /  26.3 °C 54.2 °F /  12.3 °C 30.06in /  1017.8hPa SSE 3.0mph /  4.8km/h 8.0mph /  12.9km/h 42% 0.00in /  0mm
16:48 79.1 °F /  26.2 °C 53.4 °F /  11.9 °C 30.06in /  1017.8hPa South 3.0mph /  4.8km/h 8.0mph /  12.9km/h 41% 0.00in /  0mm
16:53 79.0 °F /  26.1 °C 54.6 °F /  12.6 °C 30.06in /  1017.8hPa ESE 5.0mph /  8km/h 7.0mph /  11.3km/h 43% 0.00in /  0mm
16:58 79.2 °F /  26.2 °C 54.8 °F /  12.7 °C 30.06in /  1017.8hPa SSW 3.0mph /  4.8km/h 4.0mph /  6.4km/h 43% 0.00in /  0mm
17:03 79.2 °F /  26.2 °C 54.2 °F /  12.3 °C 30.06in /  1017.8hPa ESE 4.0mph /  6.4km/h 8.0mph /  12.9km/h 42% 0.00in /  0mm
17:08 79.2 °F /  26.2 °C 54.8 °F /  12.7 °C 30.06in /  1017.8hPa SSE 9.0mph /  14.5km/h 11.0mph /  17.7km/h 43% 0.00in /  0mm
17:13 79.2 °F /  26.2 °C 56.0 °F /  13.3 °C 30.06in /  1017.8hPa SSE 8.0mph /  12.9km/h 10.0mph /  16.1km/h 45% 0.00in /  0mm
17:18 79.4 °F /  26.3 °C 55.0 °F /  12.8 °C 30.05in /  1017.5hPa SE 4.0mph /  6.4km/h 7.0mph /  11.3km/h 43% 0.00in /  0mm
17:23 79.7 °F /  26.5 °C 54.6 °F /  12.6 °C 30.05in /  1017.5hPa SSW 3.0mph /  4.8km/h 8.0mph /  12.9km/h 42% 0.00in /  0mm
17:28 79.9 °F /  26.6 °C 54.1 °F /  12.3 °C 30.05in /  1017.5hPa SE 1.0mph /  1.6km/h 7.0mph /  11.3km/h 41% 0.00in /  0mm
17:33 80.0 °F /  26.7 °C 54.2 °F /  12.3 °C 30.05in /  1017.5hPa WSW 5.0mph /  8km/h 9.0mph /  14.5km/h 41% 0.00in /  0mm
17:39 79.8 °F /  26.6 °C 54.7 °F /  12.6 °C 30.05in /  1017.5hPa SSE 6.0mph /  9.7km/h 10.0mph /  16.1km/h 42% 0.00in /  0mm
17:44 79.9 °F /  26.6 °C 54.8 °F /  12.7 °C 30.05in /  1017.5hPa South 7.0mph /  11.3km/h 8.0mph /  12.9km/h 42% 0.00in /  0mm
17:49 79.6 °F /  26.4 °C 53.2 °F /  11.8 °C 30.05in /  1017.5hPa SE 4.0mph /  6.4km/h 10.0mph /  16.1km/h 40% 0.00in /  0mm
17:54 79.6 °F /  26.4 °C 54.5 °F /  12.5 °C 30.04in /  1017.2hPa SE 9.0mph /  14.5km/h 12.0mph /  19.3km/h 42% 0.00in /  0mm
17:59 79.7 °F /  26.5 °C 53.3 °F /  11.8 °C 30.04in /  1017.2hPa SE 3.0mph /  4.8km/h 9.0mph /  14.5km/h 40% 0.00in /  0mm
18:04 79.9 °F /  26.6 °C 56.7 °F /  13.7 °C 30.04in /  1017.2hPa SE 8.0mph /  12.9km/h 9.0mph /  14.5km/h 45% 0.00in /  0mm
18:09 79.5 °F /  26.4 °C 54.4 °F /  12.4 °C 30.04in /  1017.2hPa ESE 8.0mph /  12.9km/h 10.0mph /  16.1km/h 42% 0.00in /  0mm
18:14 79.5 °F /  26.4 °C 54.4 °F /  12.4 °C 30.04in /  1017.2hPa South 6.0mph /  9.7km/h 9.0mph /  14.5km/h 42% 0.00in /  0mm
18:19 79.5 °F /  26.4 °C 54.4 °F /  12.4 °C 30.04in /  1017.2hPa SSE 8.0mph /  12.9km/h 8.0mph /  12.9km/h 42% 0.00in /  0mm
18:24 79.4 °F /  26.3 °C 53.7 °F /  12.1 °C 30.04in /  1017.2hPa SE 7.0mph /  11.3km/h 11.0mph /  17.7km/h 41% 0.00in /  0mm
18:29 79.2 °F /  26.2 °C 52.8 °F /  11.6 °C 30.04in /  1017.2hPa SSE 4.0mph /  6.4km/h 9.0mph /  14.5km/h 40% 0.00in /  0mm
18:34 79.4 °F /  26.3 °C 54.3 °F /  12.4 °C 30.04in /  1017.2hPa SE 8.0mph /  12.9km/h 8.0mph /  12.9km/h 42% 0.00in /  0mm
18:39 79.2 °F /  26.2 °C 54.2 °F /  12.3 °C 30.03in /  1016.8hPa South 6.0mph /  9.7km/h 7.0mph /  11.3km/h 42% 0.00in /  0mm
18:44 79.1 °F /  26.2 °C 53.4 °F /  11.9 °C 30.03in /  1016.8hPa SE 4.0mph /  6.4km/h 7.0mph /  11.3km/h 41% 0.00in /  0mm
18:49 79.1 °F /  26.2 °C 54.1 °F /  12.3 °C 30.03in /  1016.8hPa SSE 3.0mph /  4.8km/h 5.0mph /  8km/h 42% 0.00in /  0mm
18:54 79.0 °F /  26.1 °C 53.3 °F /  11.8 °C 30.03in /  1016.8hPa SSE 6.0mph /  9.7km/h 9.0mph /  14.5km/h 41% 0.00in /  0mm
18:59 78.7 °F /  25.9 °C 53.0 °F /  11.7 °C 30.03in /  1016.8hPa SSE 5.0mph /  8km/h 8.0mph /  12.9km/h 41% 0.00in /  0mm
19:04 78.3 °F /  25.7 °C 53.3 °F /  11.8 °C 30.03in /  1016.8hPa SE 7.0mph /  11.3km/h 8.0mph /  12.9km/h 42% 0.00in /  0mm
19:09 78.1 °F /  25.6 °C 54.4 °F /  12.4 °C 30.03in /  1016.8hPa SSE 5.0mph /  8km/h 7.0mph /  11.3km/h 44% 0.00in /  0mm
19:14 77.7 °F /  25.4 °C 53.5 °F /  11.9 °C 30.03in /  1016.8hPa SE 4.0mph /  6.4km/h 5.0mph /  8km/h 43% 0.00in /  0mm
19:19 77.6 °F /  25.3 °C 53.4 °F /  11.9 °C 30.03in /  1016.8hPa SSE 4.0mph /  6.4km/h 5.0mph /  8km/h 43% 0.00in /  0mm
19:24 77.4 °F /  25.2 °C 54.4 °F /  12.4 °C 30.03in /  1016.8hPa SSE 2.0mph /  3.2km/h 4.0mph /  6.4km/h 45% 0.00in /  0mm
19:29 77.1 °F /  25.1 °C 54.2 °F /  12.3 °C 30.03in /  1016.8hPa ESE 3.0mph /  4.8km/h 3.0mph /  4.8km/h 45% 0.00in /  0mm
19:34 77.0 °F /  25 °C 54.1 °F /  12.3 °C 30.03in /  1016.8hPa SE 3.0mph /  4.8km/h 4.0mph /  6.4km/h 45% 0.00in /  0mm
19:39 76.6 °F /  24.8 °C 54.3 °F /  12.4 °C 30.03in /  1016.8hPa SE 3.0mph /  4.8km/h 4.0mph /  6.4km/h 46% 0.00in /  0mm
19:45 76.2 °F /  24.6 °C 54.5 °F /  12.5 °C 30.03in /  1016.8hPa ESE 3.0mph /  4.8km/h 3.0mph /  4.8km/h 47% 0.00in /  0mm
19:50 75.7 °F /  24.3 °C 54.6 °F /  12.6 °C 30.03in /  1016.8hPa SE 4.0mph /  6.4km/h 4.0mph /  6.4km/h 48% 0.00in /  0mm
19:55 75.1 °F /  23.9 °C 54.1 °F /  12.3 °C 30.03in /  1016.8hPa SE 3.0mph /  4.8km/h 4.0mph /  6.4km/h 48% 0.00in /  0mm
20:00 74.6 °F /  23.7 °C 54.8 °F /  12.7 °C 30.03in /  1016.8hPa ESE 3.0mph /  4.8km/h 4.0mph /  6.4km/h 50% 0.00in /  0mm
20:05 73.7 °F /  23.2 °C 55.0 °F /  12.8 °C 30.03in /  1016.8hPa ESE 3.0mph /  4.8km/h 4.0mph /  6.4km/h 52% 0.00in /  0mm
20:10 73.0 °F /  22.8 °C 54.4 °F /  12.4 °C 30.03in /  1016.8hPa ESE 3.0mph /  4.8km/h 3.0mph /  4.8km/h 52% 0.00in /  0mm
20:15 72.7 °F /  22.6 °C 54.6 °F /  12.6 °C 30.03in /  1016.8hPa ESE 2.0mph /  3.2km/h 3.0mph /  4.8km/h 53% 0.00in /  0mm
20:20 72.3 °F /  22.4 °C 54.2 °F /  12.3 °C 30.03in /  1016.8hPa ESE 3.0mph /  4.8km/h 3.0mph /  4.8km/h 53% 0.00in /  0mm
20:25 72.0 °F /  22.2 °C 54.0 °F /  12.2 °C 30.03in /  1016.8hPa East 2.0mph /  3.2km/h 3.0mph /  4.8km/h 53% 0.00in /  0mm
20:30 71.7 °F /  22.1 °C 54.2 °F /  12.3 °C 30.03in /  1016.8hPa ESE 3.0mph /  4.8km/h 3.0mph /  4.8km/h 54% 0.00in /  0mm
20:35 71.6 °F /  22 °C 53.6 °F /  12 °C 30.03in /  1016.8hPa ESE 3.0mph /  4.8km/h 3.0mph /  4.8km/h 53% 0.00in /  0mm
20:40 71.8 °F /  22.1 °C 53.2 °F /  11.8 °C 30.03in /  1016.8hPa SE 2.0mph /  3.2km/h 3.0mph /  4.8km/h 52% 0.00in /  0mm
20:45 71.6 °F /  22 °C 53.6 °F /  12 °C 30.03in /  1016.8hPa SE 2.0mph /  3.2km/h 3.0mph /  4.8km/h 53% 0.00in /  0mm
20:50 71.6 °F /  22 °C 53.1 °F /  11.7 °C 30.03in /  1016.8hPa ESE 2.0mph /  3.2km/h 4.0mph /  6.4km/h 52% 0.00in /  0mm
20:55 71.4 °F /  21.9 °C 53.4 °F /  11.9 °C 30.03in /  1016.8hPa ESE 3.0mph /  4.8km/h 3.0mph /  4.8km/h 53% 0.00in /  0mm
21:00 71.1 °F /  21.7 °C 53.1 °F /  11.7 °C 30.03in /  1016.8hPa ESE 3.0mph /  4.8km/h 4.0mph /  6.4km/h 53% 0.00in /  0mm
21:05 71.0 °F /  21.7 °C 53.0 °F /  11.7 °C 30.03in /  1016.8hPa SE 3.0mph /  4.8km/h 3.0mph /  4.8km/h 53% 0.00in /  0mm
21:10 71.3 °F /  21.8 °C 52.8 °F /  11.6 °C 30.04in /  1017.2hPa ESE 3.0mph /  4.8km/h 5.0mph /  8km/h 52% 0.00in /  0mm
21:15 71.4 °F /  21.9 °C 52.9 °F /  11.6 °C 30.03in /  1016.8hPa SE 3.0mph /  4.8km/h 4.0mph /  6.4km/h 52% 0.00in /  0mm
21:20 71.6 °F /  22 °C 52.5 °F /  11.4 °C 30.04in /  1017.2hPa SE 2.0mph /  3.2km/h 4.0mph /  6.4km/h 51% 0.00in /  0mm
21:25 71.4 °F /  21.9 °C 52.9 °F /  11.6 °C 30.04in /  1017.2hPa ESE 2.0mph /  3.2km/h 4.0mph /  6.4km/h 52% 0.00in /  0mm
21:30 71.0 °F /  21.7 °C 52.5 °F /  11.4 °C 30.04in /  1017.2hPa ESE 3.0mph /  4.8km/h 4.0mph /  6.4km/h 52% 0.00in /  0mm
21:35 70.8 °F /  21.6 °C 52.8 °F /  11.6 °C 30.04in /  1017.2hPa ESE 3.0mph /  4.8km/h 5.0mph /  8km/h 53% 0.00in /  0mm
21:40 71.0 °F /  21.7 °C 52.5 °F /  11.4 °C 30.05in /  1017.5hPa ESE 3.0mph /  4.8km/h 4.0mph /  6.4km/h 52% 0.00in /  0mm
21:45 71.0 °F /  21.7 °C 52.5 °F /  11.4 °C 30.05in /  1017.5hPa ESE 3.0mph /  4.8km/h 4.0mph /  6.4km/h 52% 0.00in /  0mm
21:48 71.0 °F /  21.7 °C 52.5 °F /  11.4 °C 30.05in /  1017.5hPa ESE 3.0mph /  4.8km/h 4.0mph /  6.4km/h 52% 0.00in /  0mm
21:53 70.9 °F /  21.6 °C 52.4 °F /  11.3 °C 30.05in /  1017.5hPa SE 4.0mph /  6.4km/h 7.0mph /  11.3km/h 52% 0.00in /  0mm
21:58 70.9 °F /  21.6 °C 52.9 °F /  11.6 °C 30.05in /  1017.5hPa ESE 6.0mph /  9.7km/h 7.0mph /  11.3km/h 53% 0.00in /  0mm
22:03 70.7 °F /  21.5 °C 52.8 °F /  11.6 °C 30.05in /  1017.5hPa SE 4.0mph /  6.4km/h 6.0mph /  9.7km/h 53% 0.00in /  0mm
22:08 70.6 °F /  21.4 °C 53.2 °F /  11.8 °C 30.05in /  1017.5hPa SE 6.0mph /  9.7km/h 6.0mph /  9.7km/h 54% 0.00in /  0mm
22:13 70.4 °F /  21.3 °C 53.0 °F /  11.7 °C 30.05in /  1017.5hPa SE 4.0mph /  6.4km/h 6.0mph /  9.7km/h 54% 0.00in /  0mm
22:18 70.1 °F /  21.2 °C 52.7 °F /  11.5 °C 30.05in /  1017.5hPa SE 6.0mph /  9.7km/h 6.0mph /  9.7km/h 54% 0.00in /  0mm
22:23 69.9 °F /  21.1 °C 53.0 °F /  11.7 °C 30.05in /  1017.5hPa SE 4.0mph /  6.4km/h 6.0mph /  9.7km/h 55% 0.00in /  0mm
22:28 69.7 °F /  20.9 °C 52.8 °F /  11.6 °C 30.05in /  1017.5hPa SE 4.0mph /  6.4km/h 5.0mph /  8km/h 55% 0.00in /  0mm
22:33 69.3 °F /  20.7 °C 53.0 °F /  11.7 °C 30.06in /  1017.8hPa SE 3.0mph /  4.8km/h 5.0mph /  8km/h 56% 0.00in /  0mm
22:38 69.0 °F /  20.6 °C 53.2 °F /  11.8 °C 30.06in /  1017.8hPa SE 4.0mph /  6.4km/h 6.0mph /  9.7km/h 57% 0.00in /  0mm
22:43 68.6 °F /  20.3 °C 53.2 °F /  11.8 °C 30.06in /  1017.8hPa SE 3.0mph /  4.8km/h 4.0mph /  6.4km/h 58% 0.00in /  0mm
22:48 68.0 °F /  20 °C 53.2 °F /  11.8 °C 30.05in /  1017.5hPa SE 3.0mph /  4.8km/h 3.0mph /  4.8km/h 59% 0.00in /  0mm
22:53 67.6 °F /  19.8 °C 52.8 °F /  11.6 °C 30.06in /  1017.8hPa SSE 2.0mph /  3.2km/h 4.0mph /  6.4km/h 59% 0.00in /  0mm
22:58 67.3 °F /  19.6 °C 53.0 °F /  11.7 °C 30.06in /  1017.8hPa SSE 3.0mph /  4.8km/h 3.0mph /  4.8km/h 60% 0.00in /  0mm
23:03 67.1 °F /  19.5 °C 52.8 °F /  11.6 °C 30.06in /  1017.8hPa SE 3.0mph /  4.8km/h 3.0mph /  4.8km/h 60% 0.00in /  0mm
23:08 66.9 °F /  19.4 °C 52.6 °F /  11.4 °C 30.06in /  1017.8hPa SSE 2.0mph /  3.2km/h 4.0mph /  6.4km/h 60% 0.00in /  0mm
23:13 66.8 °F /  19.3 °C 52.9 °F /  11.6 °C 30.06in /  1017.8hPa SSW 1.0mph /  1.6km/h 5.0mph /  8km/h 61% 0.00in /  0mm
23:18 66.8 °F /  19.3 °C 52.9 °F /  11.6 °C 30.06in /  1017.8hPa South 2.0mph /  3.2km/h 4.0mph /  6.4km/h 61% 0.00in /  0mm
23:23 66.6 °F /  19.2 °C 52.8 °F /  11.6 °C 30.06in /  1017.8hPa South 3.0mph /  4.8km/h 4.0mph /  6.4km/h 61% 0.00in /  0mm
23:28 66.8 °F /  19.3 °C 52.9 °F /  11.6 °C 30.06in /  1017.8hPa SSE 2.0mph /  3.2km/h 3.0mph /  4.8km/h 61% 0.00in /  0mm
23:33 66.7 °F /  19.3 °C 52.8 °F /  11.6 °C 30.06in /  1017.8hPa SSE 2.0mph /  3.2km/h 3.0mph /  4.8km/h 61% 0.00in /  0mm
23:39 66.8 °F /  19.3 °C 52.9 °F /  11.6 °C 30.06in /  1017.8hPa SE 2.0mph /  3.2km/h 3.0mph /  4.8km/h 61% 0.00in /  0mm
23:44 66.7 °F /  19.3 °C 52.8 °F /  11.6 °C 30.06in /  1017.8hPa SSE 2.0mph /  3.2km/h 3.0mph /  4.8km/h 61% 0.00in /  0mm
23:49 66.5 °F /  19.2 °C 52.7 °F /  11.5 °C 30.06in /  1017.8hPa SSE 3.0mph /  4.8km/h 3.0mph /  4.8km/h 61% 0.00in /  0mm
23:54 66.6 °F /  19.2 °C 52.8 °F /  11.6 °C 30.06in /  1017.8hPa SSW 4.0mph /  6.4km/h 4.0mph /  6.4km/h 61% 0.00in /  0mm
23:59 66.6 °F /  19.2 °C 53.2 °F /  11.8 °C 30.06in /  1017.8hPa SSE 2.0mph /  3.2km/h 4.0mph /  6.4km/h 62% 0.00in /  0mm
Compliments of Weather Underground